METAR Data
IDs: Format: Raw Decoded Include TAF

Data at: 2150 UTC 22 Sep 2020

METAR for:KDCA (Washington/National, VA, US)
Text:KDCA 222052Z 30007G16KT 10SM FEW250 22/06 A3005 RMK AO2 SLP174 FU FEW250 T02170056 56032
Temperature: 21.7°C ( 71°F)
Dewpoint: 5.6°C ( 42°F) [RH = 35%]
Pressure (altimeter):30.05 inches Hg (1017.7 mb) [Sea level pressure: 1017.4 mb]
Winds:from the WNW (300 degrees) at 8 MPH (7 knots; 3.6 m/s) gusting to 18 MPH (16 knots; 8.2 m/s)
Visibility:10 or more sm (16+ km)
Ceiling:at least 12,000 feet AGL
Clouds: few clouds at 25000 feet AGL